Time;durP1;ratioP1;P1;durP2;ratioP2;P2;SDS_P1;SDS_P2;PMS_P1;PMS_P2;Temp;Humidity;BMP_temperature;BMP_pressure;BME280_temperature;BME280_humidity;BME280_pressure;Samples;Min_cycle;Max_cycle;Signal;HPM_P1;HPM_P2
2023/06/22 00:00:53;;;;;;;6.20;5.40;;;;;;;;;;5033188;28;20492;-61
2023/06/22 00:03:20;;;;;;;7.30;5.20;;;;;;;;;;5044746;28;20488;-61
2023/06/22 00:05:47;;;;;;;7.07;5.33;;;;;;;;;;5041896;28;20466;-61
2023/06/22 00:08:13;;;;;;;6.13;5.33;;;;;;;;;;5044286;28;20564;-61
2023/06/22 00:10:40;;;;;;;6.43;5.83;;;;;;;;;;5044343;28;20497;-61
2023/06/22 00:13:06;;;;;;;6.83;5.50;;;;;;;;;;5042340;28;20488;-61
2023/06/22 00:15:34;;;;;;;8.83;5.93;;;;;;;;;;5044516;28;20485;-60
2023/06/22 00:18:02;;;;;;;5.73;5.13;;;;;;;;;;5042338;28;20481;-60
2023/06/22 00:20:28;;;;;;;7.53;5.60;;;;;;;;;;5044871;28;20454;-60
2023/06/22 00:22:55;;;;;;;5.97;5.37;;;;;;;;;;5045158;28;21075;-60
2023/06/22 00:25:21;;;;;;;8.00;7.30;;;;;;;;;;5042581;28;20477;-60
2023/06/22 00:27:47;;;;;;;8.03;7.23;;;;;;;;;;5045098;28;20466;-60
2023/06/22 00:30:14;;;;;;;6.00;5.40;;;;;;;;;;5046823;28;20559;-60
2023/06/22 00:32:42;;;;;;;6.23;5.30;;;;;;;;;;5050858;28;20491;-61
2023/06/22 00:35:09;;;;;;;6.10;5.50;;;;;;;;;;5042753;28;20476;-61
2023/06/22 00:37:36;;;;;;;7.00;5.70;;;;;;;;;;5043821;28;20489;-61
2023/06/22 00:40:03;;;;;;;5.77;5.17;;;;;;;;;;5044947;28;20486;-61
2023/06/22 00:42:30;;;;;;;5.70;5.20;;;;;;;;;;5042556;28;20464;-60
2023/06/22 00:44:56;;;;;;;6.13;5.40;;;;;;;;;;5046030;28;20477;-61
2023/06/22 00:47:22;;;;;;;7.30;6.00;;;;;;;;;;5050567;28;20532;-61
2023/06/22 00:49:51;;;;;;;8.63;5.90;;;;;;;;;;5049619;28;20505;-61
2023/06/22 00:52:20;;;;;;;6.87;5.10;;;;;;;;;;5048477;28;20452;-61
2023/06/22 00:54:48;;;;;;;6.20;5.23;;;;;;;;;;5045181;28;20492;-61
2023/06/22 00:57:16;;;;;;;7.40;5.37;;;;;;;;;;5048704;28;20454;-61
2023/06/22 00:59:43;;;;;;;8.80;6.20;;;;;;;;;;5044900;28;20553;-61
2023/06/22 01:02:09;;;;;;;6.60;5.90;;;;;;;;;;5040920;28;20522;-61
2023/06/22 01:04:36;;;;;;;8.73;6.07;;;;;;;;;;5042829;28;20505;-60
2023/06/22 01:07:12;;;;;;;8.57;5.73;;;;;;;;;;5044100;28;20497;-61
2023/06/22 01:09:43;;;;;;;7.70;5.80;;;;;;;;;;5044632;28;20511;-61
2023/06/22 01:12:10;;;;;;;8.20;5.73;;;;;;;;;;5045555;28;20525;-61
2023/06/22 01:14:40;;;;;;;7.20;6.50;;;;;;;;;;5046871;28;20478;-61
2023/06/22 01:17:08;;;;;;;7.93;6.80;;;;;;;;;;5041214;28;20493;-61
2023/06/22 01:19:41;;;;;;;7.43;6.30;;;;;;;;;;5042408;28;20449;-60
2023/06/22 01:22:16;;;;;;;6.17;5.50;;;;;;;;;;5052899;28;20485;-61
2023/06/22 01:24:47;;;;;;;6.53;5.83;;;;;;;;;;5048166;28;20481;-60
2023/06/22 01:27:21;;;;;;;6.43;5.83;;;;;;;;;;5041363;28;20548;-61
2023/06/22 01:29:51;;;;;;;7.73;6.00;;;;;;;;;;5041735;28;20822;-60
2023/06/22 01:32:17;;;;;;;8.60;7.30;;;;;;;;;;5041403;28;20525;-60
2023/06/22 01:34:44;;;;;;;6.70;6.03;;;;;;;;;;5041706;28;20450;-61
2023/06/22 01:37:11;;;;;;;9.60;6.67;;;;;;;;;;5050930;28;20560;-61
2023/06/22 01:39:37;;;;;;;9.20;6.20;;;;;;;;;;5040759;28;20480;-61
2023/06/22 01:42:05;;;;;;;8.67;5.60;;;;;;;;;;5050787;28;20483;-61
2023/06/22 01:44:31;;;;;;;9.90;7.10;;;;;;;;;;5042716;28;20460;-60
2023/06/22 01:46:59;;;;;;;8.67;7.27;;;;;;;;;;5041293;28;20549;-61
2023/06/22 01:49:26;;;;;;;8.50;7.60;;;;;;;;;;5042944;28;20984;-60
2023/06/22 01:51:54;;;;;;;9.40;7.60;;;;;;;;;;5041496;28;20513;-61
2023/06/22 01:54:20;;;;;;;9.50;7.43;;;;;;;;;;5041179;28;20453;-61
2023/06/22 01:56:46;;;;;;;9.37;7.30;;;;;;;;;;5046896;28;20517;-61
2023/06/22 01:59:16;;;;;;;9.40;7.90;;;;;;;;;;5041436;28;20442;-61
2023/06/22 02:01:43;;;;;;;8.70;7.33;;;;;;;;;;5042484;28;20513;-61
2023/06/22 02:04:13;;;;;;;8.57;7.47;;;;;;;;;;5041752;28;20473;-61
2023/06/22 02:06:42;;;;;;;11.70;8.93;;;;;;;;;;5044312;28;20518;-60
2023/06/22 02:09:10;;;;;;;11.67;7.87;;;;;;;;;;5045847;28;21237;-60
2023/06/22 02:11:37;;;;;;;10.93;9.10;;;;;;;;;;5043416;28;20488;-61
2023/06/22 02:14:05;;;;;;;15.70;8.80;;;;;;;;;;5041047;28;20485;-60
2023/06/22 02:16:32;;;;;;;9.20;8.30;;;;;;;;;;5046158;28;20480;-61
2023/06/22 02:19:02;;;;;;;9.17;8.20;;;;;;;;;;5045815;28;20469;-61
2023/06/22 02:21:30;;;;;;;13.23;8.93;;;;;;;;;;5053640;28;20480;-61
2023/06/22 02:23:57;;;;;;;13.70;9.10;;;;;;;;;;5055402;28;20473;-61
2023/06/22 02:26:24;;;;;;;12.17;8.93;;;;;;;;;;5045028;28;20489;-61
2023/06/22 02:28:51;;;;;;;11.00;8.63;;;;;;;;;;5045428;28;20497;-61
2023/06/22 02:31:17;;;;;;;10.40;9.30;;;;;;;;;;5045482;28;20528;-61
2023/06/22 02:33:44;;;;;;;15.30;10.50;;;;;;;;;;5046744;28;20472;-61
2023/06/22 02:36:12;;;;;;;12.40;10.00;;;;;;;;;;5044147;28;20453;-61
2023/06/22 02:38:48;;;;;;;12.00;10.30;;;;;;;;;;5044719;28;20472;-61
2023/06/22 02:41:17;;;;;;;16.20;10.80;;;;;;;;;;5044797;28;20457;-61
2023/06/22 02:43:44;;;;;;;11.77;10.17;;;;;;;;;;5046996;28;20464;-61
2023/06/22 02:46:10;;;;;;;13.80;10.97;;;;;;;;;;5045751;28;20540;-61
2023/06/22 02:48:36;;;;;;;13.07;11.30;;;;;;;;;;5046109;28;20490;-61
2023/06/22 02:51:03;;;;;;;12.60;10.10;;;;;;;;;;5044494;28;20538;-61
2023/06/22 02:53:30;;;;;;;14.30;11.27;;;;;;;;;;5050979;28;20552;-60
2023/06/22 02:55:58;;;;;;;12.60;10.67;;;;;;;;;;5044015;28;20476;-60
2023/06/22 02:58:25;;;;;;;13.47;11.90;;;;;;;;;;5046359;28;20532;-61
2023/06/22 03:00:52;;;;;;;14.67;11.83;;;;;;;;;;5045264;28;20446;-60
2023/06/22 03:03:19;;;;;;;12.20;10.60;;;;;;;;;;5044918;28;20500;-61
2023/06/22 03:05:45;;;;;;;12.30;10.93;;;;;;;;;;5049275;28;20544;-60
2023/06/22 03:08:11;;;;;;;12.30;10.63;;;;;;;;;;5048367;28;21049;-60
2023/06/22 03:10:38;;;;;;;13.80;12.30;;;;;;;;;;5045651;28;20516;-60
2023/06/22 03:13:06;;;;;;;15.73;12.60;;;;;;;;;;5043515;28;20488;-61
2023/06/22 03:15:33;;;;;;;14.70;12.90;;;;;;;;;;5043943;28;20462;-61
2023/06/22 03:17:59;;;;;;;12.23;10.93;;;;;;;;;;5037782;28;20468;-61
2023/06/22 03:20:29;;;;;;;14.53;11.67;;;;;;;;;;5046168;28;21233;-61
2023/06/22 03:22:56;;;;;;;14.83;10.20;;;;;;;;;;5043905;28;20458;-61
2023/06/22 03:25:22;;;;;;;20.50;10.53;;;;;;;;;;5053977;28;20527;-60
2023/06/22 03:27:49;;;;;;;14.83;11.57;;;;;;;;;;5043414;28;20508;-61
2023/06/22 03:30:16;;;;;;;12.27;11.13;;;;;;;;;;5042503;28;20481;-61
2023/06/22 03:32:43;;;;;;;14.63;11.73;;;;;;;;;;5043426;28;20464;-60
2023/06/22 03:35:10;;;;;;;12.03;10.73;;;;;;;;;;5038043;28;20456;-60
2023/06/22 03:37:36;;;;;;;16.33;12.10;;;;;;;;;;5054735;28;20493;-61
2023/06/22 03:40:05;;;;;;;13.20;11.37;;;;;;;;;;5056139;28;20544;-61
2023/06/22 03:42:31;;;;;;;13.10;11.70;;;;;;;;;;5044706;28;20476;-60
2023/06/22 03:44:57;;;;;;;14.23;12.30;;;;;;;;;;5042326;28;20456;-61
2023/06/22 03:47:25;;;;;;;11.80;9.60;;;;;;;;;;5043373;28;20457;-65
2023/06/22 03:49:54;;;;;;;14.10;10.77;;;;;;;;;;5042782;28;20529;-65
2023/06/22 03:52:21;;;;;;;14.87;10.80;;;;;;;;;;5042190;28;20465;-60
2023/06/22 03:54:47;;;;;;;13.57;10.30;;;;;;;;;;5043375;28;20556;-60
2023/06/22 03:57:13;;;;;;;11.90;9.33;;;;;;;;;;5043204;28;20488;-60
2023/06/22 03:59:40;;;;;;;13.50;10.23;;;;;;;;;;5045471;28;20473;-60
2023/06/22 04:02:06;;;;;;;12.73;10.87;;;;;;;;;;5035417;28;20533;-60
2023/06/22 04:04:35;;;;;;;10.70;9.60;;;;;;;;;;5045101;28;20450;-61
2023/06/22 04:07:01;;;;;;;16.63;10.73;;;;;;;;;;5035062;28;20801;-61
2023/06/22 04:09:27;;;;;;;21.93;11.17;;;;;;;;;;5040689;28;21077;-61
2023/06/22 04:11:54;;;;;;;14.53;10.77;;;;;;;;;;5042095;28;20510;-61
2023/06/22 04:14:20;;;;;;;15.50;10.97;;;;;;;;;;5038533;28;20454;-60
2023/06/22 04:16:47;;;;;;;13.53;11.00;;;;;;;;;;5039323;28;20447;-60
2023/06/22 04:19:16;;;;;;;13.83;12.33;;;;;;;;;;5042497;28;20544;-61
2023/06/22 04:21:44;;;;;;;17.73;13.10;;;;;;;;;;5038437;28;20464;-60
2023/06/22 04:24:10;;;;;;;19.10;11.60;;;;;;;;;;5039591;28;20461;-60
2023/06/22 04:26:37;;;;;;;15.10;11.80;;;;;;;;;;5039844;28;20450;-61
2023/06/22 04:29:05;;;;;;;11.27;10.07;;;;;;;;;;5041451;28;20490;-60
2023/06/22 04:31:31;;;;;;;12.70;11.43;;;;;;;;;;5041814;28;20445;-60
2023/06/22 04:34:05;;;;;;;16.90;12.87;;;;;;;;;;5034479;28;20470;-60
2023/06/22 04:36:36;;;;;;;14.97;12.13;;;;;;;;;;5041115;28;20451;-60
2023/06/22 04:39:04;;;;;;;12.60;10.80;;;;;;;;;;5037858;28;20481;-60
2023/06/22 04:41:41;;;;;;;12.03;10.70;;;;;;;;;;5041744;28;20469;-60
2023/06/22 04:44:08;;;;;;;14.80;11.73;;;;;;;;;;5044395;28;20472;-60
2023/06/22 04:46:38;;;;;;;14.23;11.70;;;;;;;;;;5040101;28;20513;-60
2023/06/22 04:49:06;;;;;;;16.80;11.60;;;;;;;;;;5047005;28;21347;-60
2023/06/22 04:51:32;;;;;;;10.80;9.80;;;;;;;;;;5046639;28;20481;-60
2023/06/22 04:54:00;;;;;;;12.83;11.53;;;;;;;;;;5048679;28;20535;-61
2023/06/22 04:56:28;;;;;;;13.43;12.03;;;;;;;;;;5049698;28;20466;-60
2023/06/22 04:58:56;;;;;;;13.37;12.07;;;;;;;;;;5040761;28;20869;-60
2023/06/22 05:01:23;;;;;;;12.93;11.60;;;;;;;;;;5041008;28;20456;-60
2023/06/22 05:03:49;;;;;;;15.30;12.17;;;;;;;;;;5037431;28;20460;-60
2023/06/22 05:06:16;;;;;;;12.87;11.67;;;;;;;;;;5038920;28;20525;-60
2023/06/22 05:08:42;;;;;;;12.70;11.17;;;;;;;;;;5041058;28;20461;-60
2023/06/22 05:11:09;;;;;;;13.00;11.27;;;;;;;;;;5042004;28;20520;-69
2023/06/22 05:13:36;;;;;;;13.73;12.33;;;;;;;;;;5039241;28;20453;-61
2023/06/22 05:16:03;;;;;;;15.47;12.13;;;;;;;;;;5036175;28;20486;-61
2023/06/22 05:18:30;;;;;;;12.70;11.47;;;;;;;;;;5036430;28;20536;-61
2023/06/22 05:20:56;;;;;;;12.97;11.53;;;;;;;;;;5043281;28;20533;-61
2023/06/22 05:23:23;;;;;;;13.87;12.40;;;;;;;;;;5040342;28;20450;-61
2023/06/22 05:25:49;;;;;;;13.70;12.30;;;;;;;;;;5041605;28;20538;-61
2023/06/22 05:28:15;;;;;;;12.80;11.50;;;;;;;;;;5040381;28;20489;-61
2023/06/22 05:30:43;;;;;;;13.73;12.00;;;;;;;;;;5038232;28;20526;-61
2023/06/22 05:33:09;;;;;;;12.53;11.20;;;;;;;;;;5036282;28;20492;-61
2023/06/22 05:35:36;;;;;;;13.97;12.57;;;;;;;;;;5039587;28;20454;-60
2023/06/22 05:38:02;;;;;;;15.07;13.50;;;;;;;;;;5028535;28;20916;-61
2023/06/22 05:40:28;;;;;;;14.00;12.20;;;;;;;;;;5043750;28;20526;-61
2023/06/22 05:42:55;;;;;;;12.97;11.20;;;;;;;;;;5044040;28;20531;-61
2023/06/22 05:45:21;;;;;;;12.97;11.77;;;;;;;;;;5047925;28;20454;-61
2023/06/22 05:47:49;;;;;;;13.63;12.23;;;;;;;;;;5041071;28;20462;-61
2023/06/22 05:50:15;;;;;;;14.00;12.60;;;;;;;;;;5040595;28;20568;-61
2023/06/22 05:52:42;;;;;;;10.97;9.87;;;;;;;;;;5035923;28;20497;-61
2023/06/22 05:55:09;;;;;;;14.40;11.20;;;;;;;;;;5041741;28;20521;-61
2023/06/22 05:57:35;;;;;;;11.93;10.70;;;;;;;;;;5038298;28;20494;-61
2023/06/22 06:00:05;;;;;;;12.47;11.17;;;;;;;;;;5048838;28;20477;-61
2023/06/22 06:02:33;;;;;;;13.90;12.50;;;;;;;;;;5035685;28;20446;-61
2023/06/22 06:05:03;;;;;;;13.33;11.93;;;;;;;;;;5044786;28;20533;-60
2023/06/22 06:07:29;;;;;;;17.30;11.90;;;;;;;;;;5040222;28;20468;-61
2023/06/22 06:09:56;;;;;;;15.07;12.20;;;;;;;;;;5041780;28;20520;-61
2023/06/22 06:12:22;;;;;;;13.27;11.80;;;;;;;;;;5050426;28;20449;-60
2023/06/22 06:14:51;;;;;;;15.33;13.70;;;;;;;;;;5048558;28;20553;-61
2023/06/22 06:17:17;;;;;;;14.70;13.30;;;;;;;;;;5039658;28;20488;-61
2023/06/22 06:19:44;;;;;;;14.67;12.20;;;;;;;;;;5040893;28;20504;-61
2023/06/22 06:22:12;;;;;;;18.07;12.07;;;;;;;;;;5031755;28;20469;-61
2023/06/22 06:24:38;;;;;;;15.63;13.90;;;;;;;;;;5041616;28;20486;-61
2023/06/22 06:27:05;;;;;;;14.90;13.03;;;;;;;;;;5048362;28;20509;-61
2023/06/22 06:29:31;;;;;;;13.93;12.43;;;;;;;;;;5041216;28;20496;-61
2023/06/22 06:31:57;;;;;;;15.43;13.90;;;;;;;;;;5042831;28;20525;-60
2023/06/22 06:34:24;;;;;;;15.40;13.37;;;;;;;;;;5048050;28;20477;-61
2023/06/22 06:36:50;;;;;;;14.77;13.27;;;;;;;;;;5046693;28;20462;-61
2023/06/22 06:39:18;;;;;;;15.60;12.80;;;;;;;;;;5041654;28;20548;-61
2023/06/22 06:41:44;;;;;;;15.50;13.97;;;;;;;;;;5042786;28;20465;-60
2023/06/22 06:44:11;;;;;;;13.07;11.77;;;;;;;;;;5028491;28;20494;-60
2023/06/22 06:46:37;;;;;;;18.40;13.67;;;;;;;;;;5047903;28;20517;-61
2023/06/22 06:49:04;;;;;;;16.83;14.93;;;;;;;;;;5043044;28;20487;-60
2023/06/22 06:51:30;;;;;;;16.67;14.17;;;;;;;;;;5038224;28;20467;-60
2023/06/22 06:53:57;;;;;;;15.80;12.57;;;;;;;;;;5044270;28;20453;-61
2023/06/22 06:56:24;;;;;;;16.30;13.33;;;;;;;;;;5043629;28;20477;-61
2023/06/22 06:58:52;;;;;;;16.27;14.30;;;;;;;;;;5041305;28;20464;-60
2023/06/22 07:01:19;;;;;;;14.40;12.90;;;;;;;;;;5042330;28;20496;-61
2023/06/22 07:03:46;;;;;;;16.27;14.57;;;;;;;;;;5042821;28;20446;-61
2023/06/22 07:06:14;;;;;;;15.13;13.53;;;;;;;;;;5041652;28;20496;-61
2023/06/22 07:08:40;;;;;;;16.73;13.57;;;;;;;;;;5048661;28;20496;-60
2023/06/22 07:11:07;;;;;;;15.67;13.90;;;;;;;;;;5049634;28;20486;-61
2023/06/22 07:13:35;;;;;;;16.60;14.80;;;;;;;;;;5042775;28;20465;-60
2023/06/22 07:16:01;;;;;;;15.13;13.53;;;;;;;;;;5046927;28;20461;-61
2023/06/22 07:18:27;;;;;;;15.47;13.80;;;;;;;;;;5043332;28;20457;-61
2023/06/22 07:20:54;;;;;;;16.73;14.40;;;;;;;;;;5052170;28;20442;-61
2023/06/22 07:23:20;;;;;;;15.07;13.53;;;;;;;;;;5054715;28;20473;-60
2023/06/22 07:25:47;;;;;;;16.20;14.40;;;;;;;;;;5060145;28;20488;-61
2023/06/22 07:28:13;;;;;;;15.60;13.13;;;;;;;;;;5043932;28;20458;-60
2023/06/22 07:30:41;;;;;;;14.13;12.47;;;;;;;;;;5049590;28;20544;-60
2023/06/22 07:33:08;;;;;;;17.50;14.43;;;;;;;;;;5046483;28;20485;-60
2023/06/22 07:35:34;;;;;;;15.13;13.60;;;;;;;;;;5050949;28;20480;-60
2023/06/22 07:38:01;;;;;;;17.47;15.67;;;;;;;;;;5044152;28;20545;-60
2023/06/22 07:40:27;;;;;;;14.70;12.07;;;;;;;;;;5055382;28;20483;-60
2023/06/22 07:42:54;;;;;;;16.53;12.70;;;;;;;;;;5047818;28;20545;-61
2023/06/22 07:45:20;;;;;;;16.87;14.80;;;;;;;;;;5045295;28;20489;-61
2023/06/22 07:47:48;;;;;;;15.83;14.13;;;;;;;;;;5042660;28;20973;-61
2023/06/22 07:50:14;;;;;;;16.60;14.80;;;;;;;;;;5047969;28;22358;-60
2023/06/22 07:52:41;;;;;;;15.20;13.60;;;;;;;;;;5047595;28;20535;-61
2023/06/22 07:55:07;;;;;;;15.27;13.20;;;;;;;;;;5048539;28;20458;-61
2023/06/22 07:57:34;;;;;;;16.43;14.20;;;;;;;;;;5045976;28;20448;-60
2023/06/22 08:00:00;;;;;;;19.80;16.10;;;;;;;;;;5046778;28;20478;-61
2023/06/22 08:02:27;;;;;;;16.17;14.47;;;;;;;;;;5042669;28;20473;-61
2023/06/22 08:04:55;;;;;;;18.40;13.43;;;;;;;;;;5042083;28;20449;-61
2023/06/22 08:07:21;;;;;;;14.43;12.93;;;;;;;;;;5053995;28;20476;-61
2023/06/22 08:09:48;;;;;;;15.43;13.50;;;;;;;;;;5044263;28;20486;-61
2023/06/22 08:12:15;;;;;;;15.87;14.27;;;;;;;;;;5058193;28;20479;-61
2023/06/22 08:14:42;;;;;;;18.30;14.27;;;;;;;;;;5049853;28;20484;-61
2023/06/22 08:17:09;;;;;;;15.83;13.83;;;;;;;;;;5042173;28;20481;-61
2023/06/22 08:19:35;;;;;;;14.43;12.93;;;;;;;;;;5042215;28;20458;-61
2023/06/22 08:22:03;;;;;;;18.00;15.10;;;;;;;;;;5057964;28;20592;-61
2023/06/22 08:24:30;;;;;;;16.87;14.07;;;;;;;;;;5052608;28;20536;-61
2023/06/22 08:26:57;;;;;;;15.70;14.03;;;;;;;;;;5042244;28;20453;-62
2023/06/22 08:29:23;;;;;;;14.97;13.47;;;;;;;;;;5041321;28;20551;-61
2023/06/22 08:31:49;;;;;;;14.80;13.30;;;;;;;;;;5049898;28;20758;-61
2023/06/22 08:34:23;;;;;;;13.97;12.57;;;;;;;;;;5044159;28;20457;-61
2023/06/22 08:36:52;;;;;;;14.23;12.73;;;;;;;;;;5049625;28;20461;-61
2023/06/22 08:39:20;;;;;;;15.33;13.60;;;;;;;;;;5041165;28;20513;-61
2023/06/22 08:41:46;;;;;;;14.17;12.70;;;;;;;;;;5052228;28;20825;-61
2023/06/22 08:44:13;;;;;;;17.90;12.43;;;;;;;;;;5046250;28;20797;-61
2023/06/22 08:46:40;;;;;;;14.27;12.77;;;;;;;;;;5046487;28;20454;-61
2023/06/22 08:49:07;;;;;;;15.40;13.20;;;;;;;;;;5046773;28;20464;-61
2023/06/22 08:51:33;;;;;;;13.00;11.70;;;;;;;;;;5041189;28;20513;-61
2023/06/22 08:54:00;;;;;;;13.70;12.20;;;;;;;;;;5044259;28;20449;-61
2023/06/22 08:56:28;;;;;;;13.93;12.30;;;;;;;;;;5041229;28;20526;-61
2023/06/22 08:58:54;;;;;;;15.53;12.60;;;;;;;;;;5041156;28;20485;-61
2023/06/22 09:01:21;;;;;;;14.70;13.30;;;;;;;;;;5042198;28;20528;-61
2023/06/22 09:03:54;;;;;;;13.20;12.00;;;;;;;;;;5048316;28;20641;-62
2023/06/22 09:06:21;;;;;;;15.53;12.20;;;;;;;;;;5041918;28;20454;-61
2023/06/22 09:08:48;;;;;;;16.17;13.30;;;;;;;;;;5046137;28;20485;-61
2023/06/22 09:11:14;;;;;;;15.90;13.07;;;;;;;;;;5045328;28;20485;-62
2023/06/22 09:13:42;;;;;;;12.87;11.57;;;;;;;;;;5040603;28;20445;-61
2023/06/22 09:16:09;;;;;;;15.10;11.17;;;;;;;;;;5044503;28;20452;-61
2023/06/22 09:18:36;;;;;;;15.40;11.80;;;;;;;;;;5049269;28;20458;-61
2023/06/22 09:21:02;;;;;;;11.80;10.60;;;;;;;;;;5052589;28;20449;-61
2023/06/22 09:23:29;;;;;;;14.23;11.13;;;;;;;;;;5044003;28;20909;-61
2023/06/22 09:25:55;;;;;;;11.50;10.13;;;;;;;;;;5040668;28;20465;-61
2023/06/22 09:28:22;;;;;;;11.93;10.73;;;;;;;;;;5040995;28;20462;-61
2023/06/22 09:30:49;;;;;;;13.00;11.77;;;;;;;;;;5049412;28;20524;-62
2023/06/22 09:33:16;;;;;;;12.03;9.73;;;;;;;;;;5042015;28;20461;-61
2023/06/22 09:35:42;;;;;;;12.27;11.00;;;;;;;;;;5046771;28;20450;-61
2023/06/22 09:38:09;;;;;;;12.60;11.27;;;;;;;;;;5041097;28;21158;-61
2023/06/22 09:40:39;;;;;;;12.90;11.60;;;;;;;;;;5048470;28;21011;-61
2023/06/22 09:43:06;;;;;;;12.63;11.20;;;;;;;;;;5036564;28;20881;-61
2023/06/22 09:45:32;;;;;;;11.93;10.73;;;;;;;;;;5040276;28;20517;-61
2023/06/22 09:48:00;;;;;;;11.90;10.30;;;;;;;;;;5041993;28;20497;-61
2023/06/22 09:50:26;;;;;;;11.50;10.30;;;;;;;;;;5039607;28;20449;-61
2023/06/22 09:52:54;;;;;;;13.10;11.70;;;;;;;;;;5042701;28;20817;-61
2023/06/22 09:55:21;;;;;;;13.10;11.10;;;;;;;;;;5045184;28;20552;-61
2023/06/22 09:57:47;;;;;;;9.87;8.87;;;;;;;;;;5015174;28;82174;-61
2023/06/22 10:00:27;;;;;;;10.37;9.37;;;;;;;;;;5119279;27;20558;-61
2023/06/22 10:02:55;;;;;;;9.87;8.90;;;;;;;;;;5095399;28;20443;-61
2023/06/22 10:05:22;;;;;;;10.40;9.40;;;;;;;;;;5048755;28;59901;-61
2023/06/22 10:07:48;;;;;;;10.43;8.67;;;;;;;;;;5054643;28;20476;-65
2023/06/22 10:10:15;;;;;;;10.30;9.27;;;;;;;;;;5048659;28;20454;-65
2023/06/22 10:12:46;;;;;;;13.60;10.07;;;;;;;;;;5045232;28;20450;-65
2023/06/22 10:15:13;;;;;;;12.43;9.10;;;;;;;;;;5027429;28;20512;-65
2023/06/22 10:17:40;;;;;;;10.40;9.40;;;;;;;;;;5029884;28;20453;-65
2023/06/22 10:20:11;;;;;;;10.37;9.37;;;;;;;;;;5037103;28;20554;-65
2023/06/22 10:22:38;;;;;;;11.50;10.40;;;;;;;;;;5030768;28;20458;-66
2023/06/22 10:25:05;;;;;;;12.23;11.00;;;;;;;;;;5037659;28;20896;-65
2023/06/22 10:27:31;;;;;;;11.10;9.30;;;;;;;;;;5037229;28;20446;-65
2023/06/22 10:29:58;;;;;;;11.97;10.77;;;;;;;;;;5031014;28;20545;-65
2023/06/22 10:32:24;;;;;;;11.63;10.53;;;;;;;;;;5038085;28;20450;-65
2023/06/22 10:34:52;;;;;;;11.97;10.80;;;;;;;;;;5025301;28;20939;-65
2023/06/22 10:37:18;;;;;;;11.43;10.33;;;;;;;;;;5037165;28;20496;-65
2023/06/22 10:39:45;;;;;;;11.83;10.63;;;;;;;;;;5028421;28;20482;-65
2023/06/22 10:42:12;;;;;;;11.00;9.90;;;;;;;;;;5037520;28;20634;-63
2023/06/22 10:44:41;;;;;;;11.83;10.30;;;;;;;;;;5038229;28;20489;-65
2023/06/22 10:47:07;;;;;;;11.57;10.37;;;;;;;;;;5038095;28;20832;-64
2023/06/22 10:49:34;;;;;;;10.40;9.37;;;;;;;;;;5031437;28;20493;-65
2023/06/22 10:52:01;;;;;;;10.80;9.70;;;;;;;;;;5032142;28;20453;-64
2023/06/22 10:54:28;;;;;;;12.30;10.00;;;;;;;;;;5023277;28;20487;-65
2023/06/22 10:56:55;;;;;;;12.10;11.00;;;;;;;;;;5034973;28;20465;-64
2023/06/22 10:59:23;;;;;;;12.63;10.63;;;;;;;;;;5029414;28;20529;-64
2023/06/22 11:01:50;;;;;;;11.30;10.20;;;;;;;;;;5040449;28;20911;-64
2023/06/22 11:04:17;;;;;;;14.20;10.00;;;;;;;;;;5035818;28;20454;-63
2023/06/22 11:06:43;;;;;;;11.10;10.10;;;;;;;;;;5035834;28;20454;-66
2023/06/22 11:09:11;;;;;;;14.50;11.20;;;;;;;;;;5042319;28;20492;-66
2023/06/22 11:11:37;;;;;;;11.87;10.67;;;;;;;;;;5022617;28;20458;-65
2023/06/22 11:14:04;;;;;;;11.60;10.50;;;;;;;;;;5012662;28;20471;-66
2023/06/22 11:16:30;;;;;;;10.10;9.20;;;;;;;;;;5009662;28;20454;-65
2023/06/22 11:18:57;;;;;;;11.87;10.67;;;;;;;;;;5021135;28;20553;-65
2023/06/22 11:21:23;;;;;;;15.23;10.63;;;;;;;;;;5023355;28;20495;-66
2023/06/22 11:23:50;;;;;;;11.13;10.13;;;;;;;;;;5022803;28;20508;-66
2023/06/22 11:26:18;;;;;;;11.47;10.27;;;;;;;;;;5020471;28;20991;-66
2023/06/22 11:28:44;;;;;;;12.00;10.47;;;;;;;;;;5023164;28;20454;-65
2023/06/22 11:31:11;;;;;;;11.90;10.70;;;;;;;;;;5010223;28;20443;-66
2023/06/22 11:33:37;;;;;;;11.40;9.93;;;;;;;;;;5015517;28;20469;-66
2023/06/22 11:36:03;;;;;;;11.43;10.27;;;;;;;;;;5013821;28;20784;-65
2023/06/22 11:38:30;;;;;;;12.23;10.57;;;;;;;;;;5019454;28;20482;-66
2023/06/22 11:40:58;;;;;;;10.50;9.50;;;;;;;;;;5018630;28;20462;-66
2023/06/22 11:43:26;;;;;;;10.90;9.80;;;;;;;;;;5019573;28;20447;-65
2023/06/22 11:45:52;;;;;;;11.50;10.13;;;;;;;;;;5022152;28;20454;-65
2023/06/22 11:48:18;;;;;;;11.60;10.30;;;;;;;;;;5019617;28;20455;-65
2023/06/22 11:50:45;;;;;;;11.63;10.03;;;;;;;;;;5021871;28;20509;-66
2023/06/22 11:53:12;;;;;;;10.07;9.17;;;;;;;;;;5018731;28;20505;-65
2023/06/22 11:55:38;;;;;;;11.23;8.83;;;;;;;;;;5018768;28;20468;-66
2023/06/22 11:58:06;;;;;;;11.30;9.90;;;;;;;;;;5018450;28;20443;-65
2023/06/22 12:00:33;;;;;;;10.40;9.27;;;;;;;;;;5015833;28;20946;-66
2023/06/22 12:03:00;;;;;;;10.77;9.20;;;;;;;;;;5013380;28;20499;-65
2023/06/22 12:05:26;;;;;;;10.33;9.20;;;;;;;;;;5025174;28;20502;-65
2023/06/22 12:07:54;;;;;;;9.90;8.97;;;;;;;;;;5023305;28;20510;-65
2023/06/22 12:10:21;;;;;;;10.10;8.83;;;;;;;;;;5024540;28;20465;-65
2023/06/22 12:12:47;;;;;;;10.40;9.00;;;;;;;;;;5007951;28;20455;-65
2023/06/22 12:15:13;;;;;;;9.80;8.90;;;;;;;;;;5024663;28;20458;-65
2023/06/22 12:17:41;;;;;;;11.73;9.30;;;;;;;;;;5022619;28;20455;-64
2023/06/22 12:20:08;;;;;;;9.03;7.87;;;;;;;;;;5027304;28;20486;-65
2023/06/22 12:22:37;;;;;;;9.40;8.03;;;;;;;;;;5019459;28;20513;-65
2023/06/22 12:25:04;;;;;;;9.80;8.77;;;;;;;;;;5017166;28;20493;-66
2023/06/22 12:27:31;;;;;;;9.17;8.33;;;;;;;;;;5022546;28;20454;-64
2023/06/22 12:29:57;;;;;;;9.00;8.10;;;;;;;;;;5026754;28;20483;-64
2023/06/22 12:32:24;;;;;;;11.07;9.70;;;;;;;;;;5026281;28;20474;-64
2023/06/22 12:34:51;;;;;;;12.10;10.77;;;;;;;;;;5017971;28;20473;-68
2023/06/22 12:37:18;;;;;;;13.47;11.10;;;;;;;;;;5030819;28;20489;-68
2023/06/22 12:39:44;;;;;;;11.33;10.10;;;;;;;;;;5028831;28;20486;-68
2023/06/22 12:42:11;;;;;;;13.30;12.00;;;;;;;;;;5023074;28;20517;-68
2023/06/22 12:44:38;;;;;;;14.60;11.70;;;;;;;;;;5023119;28;20466;-68
2023/06/22 12:47:05;;;;;;;14.33;12.90;;;;;;;;;;5021791;28;20998;-68
2023/06/22 12:49:32;;;;;;;15.10;13.50;;;;;;;;;;5020347;28;20501;-68
2023/06/22 12:52:00;;;;;;;14.63;13.27;;;;;;;;;;5021759;28;20477;-68
2023/06/22 12:54:26;;;;;;;15.33;12.80;;;;;;;;;;5013217;28;21032;-68
2023/06/22 12:56:52;;;;;;;14.90;13.30;;;;;;;;;;5016796;28;20501;-67
2023/06/22 12:59:19;;;;;;;14.20;12.80;;;;;;;;;;5021958;28;20570;-68
2023/06/22 13:01:45;;;;;;;14.90;13.27;;;;;;;;;;5016230;28;20451;-66
2023/06/22 13:04:14;;;;;;;14.80;13.30;;;;;;;;;;5019965;28;20462;-68
2023/06/22 13:06:41;;;;;;;15.23;13.73;;;;;;;;;;5018598;28;20455;-68
2023/06/22 13:09:08;;;;;;;14.73;13.13;;;;;;;;;;5017223;28;20485;-68
2023/06/22 13:11:35;;;;;;;15.33;13.70;;;;;;;;;;5020766;28;20463;-68
2023/06/22 13:14:01;;;;;;;16.73;14.97;;;;;;;;;;5022864;28;20442;-67
2023/06/22 13:16:28;;;;;;;16.10;14.53;;;;;;;;;;5023885;28;20486;-68
2023/06/22 13:18:54;;;;;;;17.47;15.67;;;;;;;;;;5021892;28;20463;-69
2023/06/22 13:21:21;;;;;;;18.10;15.07;;;;;;;;;;5018484;28;20590;-70
2023/06/22 13:23:47;;;;;;;18.33;16.10;;;;;;;;;;5021860;28;20455;-70
2023/06/22 13:26:15;;;;;;;17.57;15.43;;;;;;;;;;5020375;28;20542;-69
2023/06/22 13:28:41;;;;;;;18.97;17.07;;;;;;;;;;5020958;28;20478;-73
2023/06/22 13:31:08;;;;;;;18.10;15.93;;;;;;;;;;5028280;28;20472;-70
2023/06/22 13:33:34;;;;;;;19.00;17.10;;;;;;;;;;5015525;28;20452;-70
2023/06/22 13:36:03;;;;;;;19.70;17.60;;;;;;;;;;5014326;28;20523;-70
2023/06/22 13:38:30;;;;;;;18.10;16.20;;;;;;;;;;5020568;28;20497;-72
2023/06/22 13:40:59;;;;;;;20.87;18.40;;;;;;;;;;5019329;28;20545;-71
2023/06/22 13:43:27;;;;;;;18.87;16.80;;;;;;;;;;5021136;28;20482;-71
2023/06/22 13:45:54;;;;;;;16.57;14.97;;;;;;;;;;5018779;28;20450;-71
2023/06/22 13:48:20;;;;;;;19.00;17.00;;;;;;;;;;5019284;28;20455;-71
2023/06/22 13:50:47;;;;;;;18.30;16.43;;;;;;;;;;5015475;28;20836;-72
2023/06/22 13:53:13;;;;;;;20.00;18.10;;;;;;;;;;5017612;28;20486;-71
2023/06/22 13:55:40;;;;;;;20.57;18.40;;;;;;;;;;5017584;28;20458;-71
2023/06/22 13:58:07;;;;;;;21.63;19.40;;;;;;;;;;5017076;28;20514;-70
2023/06/22 14:00:35;;;;;;;20.37;18.30;;;;;;;;;;5019164;28;20552;-72
2023/06/22 14:03:03;;;;;;;25.33;21.63;;;;;;;;;;5018223;28;20538;-70
2023/06/22 14:05:29;;;;;;;31.20;21.80;;;;;;;;;;5017659;28;20990;-71
2023/06/22 14:07:56;;;;;;;27.67;23.23;;;;;;;;;;5023235;28;20473;-72
2023/06/22 14:10:22;;;;;;;27.77;24.77;;;;;;;;;;5020287;28;20493;-71
2023/06/22 14:12:49;;;;;;;35.20;29.10;;;;;;;;;;5020441;28;20497;-71
2023/06/22 14:15:15;;;;;;;36.27;28.30;;;;;;;;;;5014693;28;20541;-69
2023/06/22 14:17:43;;;;;;;34.27;29.70;;;;;;;;;;5014624;28;20463;-72
2023/06/22 14:20:10;;;;;;;36.33;28.70;;;;;;;;;;5010233;28;20518;-71
2023/06/22 14:22:36;;;;;;;36.70;30.93;;;;;;;;;;5018674;28;20454;-71